Time;durP1;ratioP1;P1;durP2;ratioP2;P2;SDS_P1;SDS_P2;PMS_P1;PMS_P2;Temp;Humidity;BMP_temperature;BMP_pressure;BME280_temperature;BME280_humidity;BME280_pressure;Samples;Min_cycle;Max_cycle;Signal;HPM_P1;HPM_P2
2021/08/03 00:00:08;;;;;;;5.32;2.83;;;15.00;99.90;;;;;;6185241;23;20161;-73
2021/08/03 00:02:38;;;;;;;5.10;2.30;;;15.00;99.90;;;;;;6186967;23;20165;-70
2021/08/03 00:05:06;;;;;;;2.78;2.00;;;15.00;99.90;;;;;;6188921;23;20160;-72
2021/08/03 00:07:35;;;;;;;5.20;2.80;;;15.00;99.90;;;;;;6189690;23;20498;-72
2021/08/03 00:10:07;;;;;;;3.15;2.55;;;15.00;99.90;;;;;;6188876;23;20187;-72
2021/08/03 00:12:36;;;;;;;3.55;2.72;;;14.90;99.90;;;;;;6188936;23;20165;-73
2021/08/03 00:15:03;;;;;;;3.85;2.67;;;14.80;99.90;;;;;;6186627;23;20169;-72
2021/08/03 00:17:32;;;;;;;3.10;2.65;;;14.80;99.90;;;;;;6185812;23;20215;-74
2021/08/03 00:19:59;;;;;;;2.78;2.58;;;14.70;99.90;;;;;;6185712;23;20616;-74
2021/08/03 00:22:26;;;;;;;3.72;3.00;;;14.60;99.90;;;;;;6186337;23;20192;-73
2021/08/03 00:24:57;;;;;;;7.97;2.97;;;14.50;99.90;;;;;;6184784;23;20159;-72
2021/08/03 00:27:25;;;;;;;6.93;3.58;;;14.50;99.90;;;;;;6184761;23;20505;-75
2021/08/03 00:29:53;;;;;;;4.45;3.20;;;14.30;99.90;;;;;;6185430;23;20167;-72
2021/08/03 00:32:21;;;;;;;4.70;3.10;;;14.30;99.90;;;;;;6185754;23;20165;-73
2021/08/03 00:34:48;;;;;;;6.50;2.60;;;14.20;99.90;;;;;;6184476;23;20180;-74
2021/08/03 00:37:16;;;;;;;3.90;2.88;;;14.20;99.90;;;;;;6184946;23;20307;-73
2021/08/03 00:39:44;;;;;;;4.13;3.67;;;14.10;99.90;;;;;;6185875;23;20494;-73
2021/08/03 00:42:11;;;;;;;3.30;2.53;;;14.10;99.90;;;;;;6186324;23;20163;-72
2021/08/03 00:44:46;;;;;;;4.35;3.15;;;14.00;99.90;;;;;;6186489;23;20164;-73
2021/08/03 00:47:19;;;;;;;4.80;3.05;;;14.00;99.90;;;;;;6187695;23;20656;-74
2021/08/03 00:49:47;;;;;;;3.97;2.80;;;14.00;99.90;;;;;;6187647;23;20596;-73
2021/08/03 00:52:16;;;;;;;6.50;2.90;;;14.10;99.90;;;;;;6188461;23;20252;-71
2021/08/03 00:54:43;;;;;;;4.20;2.10;;;14.10;99.90;;;;;;6184757;23;20171;-74
2021/08/03 00:57:12;;;;;;;4.93;3.05;;;14.10;99.90;;;;;;6185213;23;20197;-72
2021/08/03 00:59:40;;;;;;;6.22;2.45;;;14.10;99.90;;;;;;6183811;23;20175;-71
2021/08/03 01:02:08;;;;;;;7.03;2.50;;;14.20;99.90;;;;;;6184735;23;20170;-73
2021/08/03 01:04:37;;;;;;;3.75;2.60;;;14.20;99.90;;;;;;6184636;23;20614;-73
2021/08/03 01:07:11;;;;;;;4.95;2.45;;;14.30;99.90;;;;;;6185154;23;20171;-75
2021/08/03 01:09:47;;;;;;;4.25;3.00;;;14.30;99.90;;;;;;6186067;23;20220;-71
2021/08/03 01:12:28;;;;;;;5.80;2.55;;;14.30;99.90;;;;;;6159171;23;20498;-72
2021/08/03 01:15:01;;;;;;;3.75;2.70;;;14.30;99.90;;;;;;6158125;23;20167;-70
2021/08/03 01:17:36;;;;;;;4.88;2.40;;;14.30;99.90;;;;;;6158572;23;20286;-76
2021/08/03 01:20:10;;;;;;;4.63;3.53;;;14.30;99.90;;;;;;6158657;23;20179;-72
2021/08/03 01:23:12;;;;;;;7.63;2.53;;;14.30;99.90;;;;;;6158437;23;20180;-74
2021/08/03 01:25:55;;;;;;;2.63;2.00;;;14.30;99.90;;;;;;6163089;23;20160;-73
2021/08/03 01:28:27;;;;;;;4.38;2.75;;;14.30;99.90;;;;;;6158623;23;20207;-74
2021/08/03 01:31:02;;;;;;;4.30;2.60;;;14.30;99.90;;;;;;6185231;23;20611;-73
2021/08/03 01:33:33;;;;;;;9.48;3.92;;;14.30;99.90;;;;;;6184931;23;20226;-73
2021/08/03 01:36:02;;;;;;;6.05;2.78;;;14.40;99.90;;;;;;6185202;23;20168;-72
2021/08/03 01:38:33;;;;;;;11.88;3.67;;;14.40;99.90;;;;;;6183949;23;20203;-73
2021/08/03 01:41:03;;;;;;;2.92;2.67;;;14.40;99.90;;;;;;6184859;23;20279;-73
2021/08/03 01:43:36;;;;;;;4.90;3.05;;;14.40;99.90;;;;;;6184491;23;20178;-74
2021/08/03 01:46:05;;;;;;;4.50;3.05;;;14.40;99.90;;;;;;6186339;23;20205;-73
2021/08/03 01:48:34;;;;;;;7.18;2.83;;;14.40;99.90;;;;;;6185908;23;20532;-76
2021/08/03 01:51:02;;;;;;;4.45;3.65;;;14.40;99.90;;;;;;6186809;23;20172;-74
2021/08/03 01:53:30;;;;;;;11.02;3.78;;;14.40;99.90;;;;;;6186272;23;20167;-74
2021/08/03 01:56:00;;;;;;;4.25;3.10;;;14.40;99.90;;;;;;6187186;23;20160;-74
2021/08/03 01:58:29;;;;;;;6.70;3.35;;;14.40;99.90;;;;;;6185982;23;20265;-73
2021/08/03 02:00:58;;;;;;;5.10;3.95;;;14.30;99.90;;;;;;6186227;23;20164;-74
2021/08/03 02:03:28;;;;;;;9.13;4.38;;;14.20;99.90;;;;;;6186445;23;20167;-72
2021/08/03 02:05:56;;;;;;;5.07;4.05;;;14.20;99.90;;;;;;6187607;23;20502;-74
2021/08/03 02:08:25;;;;;;;4.22;3.83;;;14.10;99.90;;;;;;6186822;23;20199;-74
2021/08/03 02:10:52;;;;;;;7.40;3.70;;;14.00;99.90;;;;;;6187789;23;20178;-73
2021/08/03 02:13:20;;;;;;;9.55;4.90;;;14.00;99.90;;;;;;6186698;23;20243;-73
2021/08/03 02:15:48;;;;;;;5.65;3.75;;;13.90;99.90;;;;;;6188146;23;20160;-72
2021/08/03 02:18:17;;;;;;;6.57;4.55;;;13.80;99.90;;;;;;6187443;23;20204;-73
2021/08/03 02:20:47;;;;;;;5.70;4.70;;;13.80;99.90;;;;;;6187472;23;20163;-74
2021/08/03 02:23:14;;;;;;;6.97;5.57;;;13.70;99.90;;;;;;6186696;23;20168;-73
2021/08/03 02:25:43;;;;;;;5.43;4.10;;;13.70;99.90;;;;;;6186762;23;20161;-74
2021/08/03 02:28:11;;;;;;;8.80;5.82;;;13.70;99.90;;;;;;6186940;23;20206;-71
2021/08/03 02:30:41;;;;;;;6.70;5.30;;;13.70;99.90;;;;;;6186592;23;20178;-75
2021/08/03 02:33:13;;;;;;;7.78;6.15;;;13.70;99.90;;;;;;6185948;23;20667;-74
2021/08/03 02:35:46;;;;;;;5.57;4.22;;;13.70;99.90;;;;;;6186296;23;20179;-73
2021/08/03 02:38:18;;;;;;;9.70;5.65;;;13.60;99.90;;;;;;6186372;23;20591;-74
2021/08/03 02:40:46;;;;;;;10.50;6.47;;;13.60;99.90;;;;;;6185838;23;20178;-72
2021/08/03 02:43:16;;;;;;;13.45;6.60;;;13.70;99.90;;;;;;6186522;23;20173;-75
2021/08/03 02:45:44;;;;;;;8.45;5.55;;;13.70;99.90;;;;;;6186406;23;20243;-71
2021/08/03 02:48:15;;;;;;;6.65;5.72;;;13.70;99.90;;;;;;6186155;23;20208;-74
2021/08/03 02:50:46;;;;;;;6.13;5.05;;;13.70;99.90;;;;;;6185056;23;21019;-77
2021/08/03 02:53:19;;;;;;;7.00;5.10;;;13.70;99.90;;;;;;6186205;23;20175;-72
2021/08/03 02:55:50;;;;;;;9.07;5.25;;;13.80;99.90;;;;;;6157193;23;20524;-74
2021/08/03 02:58:23;;;;;;;8.60;4.72;;;13.80;99.90;;;;;;6185116;23;20211;-74
2021/08/03 03:00:51;;;;;;;9.88;5.65;;;13.90;99.90;;;;;;6185720;23;20175;-74
2021/08/03 03:03:23;;;;;;;6.97;4.45;;;14.00;99.90;;;;;;6185012;23;20167;-74
2021/08/03 03:05:57;;;;;;;7.35;5.85;;;14.10;99.90;;;;;;6184908;23;20172;-77
2021/08/03 03:08:27;;;;;;;6.05;4.50;;;14.10;99.90;;;;;;6185423;23;20197;-74
2021/08/03 03:10:57;;;;;;;7.68;5.47;;;14.10;99.90;;;;;;6185121;23;20190;-74
2021/08/03 03:13:28;;;;;;;6.95;4.65;;;14.10;99.90;;;;;;6186236;23;20483;-71
2021/08/03 03:15:58;;;;;;;5.70;5.07;;;14.10;99.90;;;;;;6186652;23;20168;-76
2021/08/03 03:18:25;;;;;;;7.00;5.68;;;14.20;99.90;;;;;;6185617;23;20207;-74
2021/08/03 03:20:55;;;;;;;8.77;5.03;;;14.20;99.90;;;;;;6186069;23;20161;-71
2021/08/03 03:23:24;;;;;;;5.88;5.28;;;14.20;99.90;;;;;;6185570;23;20164;-70
2021/08/03 03:25:53;;;;;;;9.90;5.35;;;14.30;99.90;;;;;;6185898;23;20187;-72
2021/08/03 03:28:24;;;;;;;8.18;5.85;;;14.30;99.90;;;;;;6185746;23;20504;-71
2021/08/03 03:30:52;;;;;;;8.75;6.50;;;14.30;99.90;;;;;;6187276;23;20496;-71
2021/08/03 03:33:20;;;;;;;9.43;5.30;;;14.30;99.90;;;;;;6186208;23;20172;-73
2021/08/03 03:35:49;;;;;;;6.88;5.18;;;14.30;99.90;;;;;;6186861;23;20165;-72
2021/08/03 03:38:22;;;;;;;8.70;6.05;;;14.30;99.90;;;;;;6184595;23;20203;-71
2021/08/03 03:40:51;;;;;;;8.20;6.47;;;14.30;99.90;;;;;;6185705;23;20175;-72
2021/08/03 03:43:19;;;;;;;7.45;5.25;;;14.30;99.90;;;;;;6185571;23;20172;-74
2021/08/03 03:45:57;;;;;;;6.80;5.85;;;14.20;99.90;;;;;;6186180;23;20191;-73
2021/08/03 03:48:29;;;;;;;7.68;6.05;;;14.20;99.90;;;;;;6184955;23;20523;-73
2021/08/03 03:51:05;;;;;;;9.65;7.18;;;14.10;99.90;;;;;;6186348;23;20192;-73
2021/08/03 03:53:40;;;;;;;11.52;6.80;;;14.10;99.90;;;;;;6184662;23;20164;-74
2021/08/03 03:56:08;;;;;;;14.00;7.25;;;13.90;99.90;;;;;;6185437;23;20171;-74
2021/08/03 03:58:38;;;;;;;10.73;6.45;;;13.80;99.90;;;;;;6185401;23;20218;-73
2021/08/03 04:01:06;;;;;;;7.75;6.07;;;13.70;99.90;;;;;;6186063;23;20165;-70
2021/08/03 04:03:37;;;;;;;8.20;6.45;;;13.60;99.90;;;;;;6184667;23;20179;-72
2021/08/03 04:06:07;;;;;;;7.95;6.22;;;13.60;99.90;;;;;;6185565;23;20198;-72
2021/08/03 04:08:38;;;;;;;6.05;5.45;;;13.60;99.90;;;;;;6185202;23;20199;-71
2021/08/03 04:11:06;;;;;;;6.63;5.32;;;13.60;99.90;;;;;;6185671;23;20168;-74
2021/08/03 04:13:33;;;;;;;7.80;5.97;;;13.70;99.90;;;;;;6184375;23;20199;-74
2021/08/03 04:16:00;;;;;;;8.00;6.10;;;13.70;99.90;;;;;;6185038;23;20201;-74
2021/08/03 04:18:28;;;;;;;5.68;4.70;;;13.70;99.90;;;;;;6185525;23;20204;-73
2021/08/03 04:20:55;;;;;;;5.88;5.10;;;13.80;99.90;;;;;;6185339;23;20177;-72
2021/08/03 04:23:22;;;;;;;7.85;5.80;;;13.80;99.90;;;;;;6185534;23;20166;-72
2021/08/03 04:25:50;;;;;;;9.25;5.38;;;13.80;99.90;;;;;;6185185;23;20164;-72
2021/08/03 04:28:17;;;;;;;6.55;5.28;;;13.90;99.90;;;;;;6185425;23;20521;-73
2021/08/03 04:30:45;;;;;;;8.52;5.45;;;14.00;99.90;;;;;;6185256;23;20191;-74
2021/08/03 04:33:12;;;;;;;5.22;4.72;;;14.10;99.90;;;;;;6185646;23;20167;-72
2021/08/03 04:35:39;;;;;;;5.88;4.95;;;14.20;99.90;;;;;;6185153;23;20161;-73
2021/08/03 04:38:06;;;;;;;6.47;5.25;;;14.30;99.90;;;;;;6184211;23;20663;-70
2021/08/03 04:40:33;;;;;;;6.05;4.60;;;14.40;99.90;;;;;;6185308;23;20171;-71
2021/08/03 04:43:02;;;;;;;8.95;5.75;;;14.50;99.90;;;;;;6185019;23;20160;-72
2021/08/03 04:45:31;;;;;;;10.00;5.30;;;14.50;99.90;;;;;;6184563;23;20165;-71
2021/08/03 04:47:58;;;;;;;5.60;4.38;;;14.60;99.90;;;;;;6185085;23;20207;-72
2021/08/03 04:50:28;;;;;;;7.28;4.85;;;14.70;99.90;;;;;;6185118;23;20175;-71
2021/08/03 04:52:56;;;;;;;7.32;5.22;;;14.80;99.90;;;;;;6185348;23;20172;-74
2021/08/03 04:55:23;;;;;;;7.72;4.93;;;14.90;99.90;;;;;;6184942;23;20484;-71
2021/08/03 04:57:51;;;;;;;17.08;10.77;;;15.00;99.90;;;;;;6184897;23;20201;-72
2021/08/03 05:00:19;;;;;;;11.38;6.35;;;15.20;99.90;;;;;;6184886;23;20168;-74
2021/08/03 05:02:49;;;;;;;8.35;4.97;;;15.50;99.90;;;;;;6185072;23;20165;-73
2021/08/03 05:05:16;;;;;;;9.65;8.60;;;15.80;99.90;;;;;;6184868;23;20596;-73
2021/08/03 05:07:55;;;;;;;17.33;10.43;;;15.90;99.90;;;;;;6185541;23;20192;-74
2021/08/03 05:10:22;;;;;;;9.38;6.90;;;16.30;99.90;;;;;;6184904;23;20166;-72
2021/08/03 05:12:49;;;;;;;11.25;9.50;;;17.10;99.90;;;;;;6184183;23;20167;-74
2021/08/03 05:15:16;;;;;;;11.97;9.63;;;18.00;99.90;;;;;;6184798;23;20497;-73
2021/08/03 05:17:45;;;;;;;7.73;4.70;;;18.70;99.90;;;;;;6184538;23;20459;-71
2021/08/03 05:20:13;;;;;;;7.00;4.57;;;19.20;99.90;;;;;;6184935;23;20400;-73
2021/08/03 05:22:41;;;;;;;6.63;5.37;;;19.60;99.90;;;;;;6186739;23;20392;-74
2021/08/03 05:25:09;;;;;;;7.27;4.60;;;20.00;99.90;;;;;;6186293;23;20396;-72
2021/08/03 05:27:36;;;;;;;8.83;5.87;;;20.60;99.90;;;;;;6186407;23;20470;-70
2021/08/03 05:30:04;;;;;;;6.43;3.93;;;21.00;99.90;;;;;;6186900;23;20398;-71
2021/08/03 05:32:31;;;;;;;14.63;8.53;;;21.40;99.90;;;;;;6186605;23;20394;-69
2021/08/03 05:35:00;;;;;;;7.47;6.57;;;21.80;99.90;;;;;;6185929;23;20397;-72
2021/08/03 05:37:28;;;;;;;7.47;6.67;;;22.00;99.90;;;;;;6185941;23;20890;-72
2021/08/03 05:39:55;;;;;;;13.77;10.20;;;22.40;99.90;;;;;;6186269;23;20408;-72
2021/08/03 05:42:23;;;;;;;5.43;3.80;;;22.60;99.90;;;;;;6184563;23;20407;-74
2021/08/03 05:44:50;;;;;;;12.67;8.20;;;22.90;99.30;;;;;;6185084;23;20876;-73
2021/08/03 05:47:17;;;;;;;9.33;5.60;;;23.50;97.80;;;;;;6186354;23;20439;-73
2021/08/03 05:49:45;;;;;;;8.23;4.00;;;23.60;97.30;;;;;;6186626;23;20396;-71
2021/08/03 05:52:13;;;;;;;8.23;6.00;;;23.80;96.60;;;;;;6186478;23;20414;-70
2021/08/03 05:54:40;;;;;;;16.97;11.97;;;23.80;96.10;;;;;;6186309;23;20886;-74
2021/08/03 05:57:07;;;;;;;5.37;4.30;;;23.80;96.20;;;;;;6185242;23;20400;-73
2021/08/03 05:59:35;;;;;;;17.10;9.90;;;24.10;96.00;;;;;;6186439;23;20432;-74
2021/08/03 06:02:02;;;;;;;10.60;8.33;;;23.80;95.60;;;;;;6186280;23;20392;-71
2021/08/03 06:04:29;;;;;;;10.70;4.50;;;24.00;95.40;;;;;;6185864;23;20395;-72
2021/08/03 06:06:57;;;;;;;10.50;9.40;;;24.40;95.10;;;;;;6185886;23;20399;-71
2021/08/03 06:09:29;;;;;;;8.40;5.50;;;24.60;94.50;;;;;;6185100;23;20388;-72
2021/08/03 06:12:00;;;;;;;6.13;4.70;;;24.80;94.00;;;;;;6186543;23;20720;-70
2021/08/03 06:14:35;;;;;;;6.23;5.43;;;24.70;93.90;;;;;;6185223;23;20403;-72
2021/08/03 06:17:04;;;;;;;8.13;6.83;;;24.90;93.60;;;;;;6185819;23;20447;-69
2021/08/03 06:19:38;;;;;;;5.00;4.50;;;25.00;93.40;;;;;;6185534;23;20442;-74
2021/08/03 06:22:06;;;;;;;9.30;5.50;;;25.20;92.70;;;;;;6186192;23;20414;-71
2021/08/03 06:24:36;;;;;;;10.63;7.27;;;25.40;92.70;;;;;;6185242;23;20400;-74
2021/08/03 06:27:03;;;;;;;6.10;4.70;;;25.70;92.00;;;;;;6185251;23;20717;-73
2021/08/03 06:29:31;;;;;;;12.73;7.67;;;25.70;91.90;;;;;;6185430;23;20396;-71
2021/08/03 06:31:58;;;;;;;7.30;4.00;;;25.90;91.70;;;;;;6185564;23;20405;-73
2021/08/03 06:34:25;;;;;;;5.80;3.50;;;26.00;91.60;;;;;;6185532;23;20398;-73
2021/08/03 06:36:53;;;;;;;6.30;4.50;;;26.10;91.10;;;;;;6186408;23;20392;-72
2021/08/03 06:39:20;;;;;;;4.90;3.70;;;26.00;91.30;;;;;;6185657;23;20463;-72
2021/08/03 06:41:48;;;;;;;8.27;4.00;;;26.40;90.80;;;;;;6186080;23;20423;-74
2021/08/03 06:44:22;;;;;;;5.40;3.53;;;27.00;90.30;;;;;;6185465;23;20399;-71
2021/08/03 06:46:54;;;;;;;7.93;3.73;;;27.40;89.40;;;;;;6185184;23;20416;-74
2021/08/03 06:49:22;;;;;;;4.90;3.77;;;27.60;88.00;;;;;;6185786;23;20694;-72
2021/08/03 06:51:55;;;;;;;7.33;3.60;;;28.10;86.90;;;;;;6186342;23;20415;-75
2021/08/03 06:54:24;;;;;;;4.50;3.37;;;28.40;85.40;;;;;;6184810;23;20851;-73
2021/08/03 06:56:57;;;;;;;6.83;3.40;;;28.40;84.30;;;;;;6184928;23;20399;-71
2021/08/03 06:59:27;;;;;;;3.63;2.90;;;28.10;84.40;;;;;;6185276;23;20419;-71
2021/08/03 07:02:01;;;;;;;2.63;2.40;;;28.00;84.80;;;;;;6185400;23;20438;-73
2021/08/03 07:04:34;;;;;;;4.70;3.23;;;27.30;85.40;;;;;;6184898;23;20390;-70
2021/08/03 07:07:03;;;;;;;9.20;3.40;;;27.50;86.60;;;;;;6185024;23;20396;-72
2021/08/03 07:09:31;;;;;;;4.67;3.00;;;28.10;85.60;;;;;;6186328;23;20388;-74
2021/08/03 07:11:59;;;;;;;5.83;2.80;;;28.50;84.10;;;;;;6185567;23;20423;-73
2021/08/03 07:14:30;;;;;;;8.43;3.23;;;28.50;83.40;;;;;;6185081;23;20418;-71
2021/08/03 07:16:57;;;;;;;2.67;1.73;;;28.40;83.70;;;;;;6184713;23;20398;-73
2021/08/03 07:19:25;;;;;;;4.10;2.30;;;28.50;84.30;;;;;;6185102;23;20428;-74
2021/08/03 07:21:53;;;;;;;3.60;2.17;;;28.10;82.50;;;;;;6186037;23;20395;-74
2021/08/03 07:24:20;;;;;;;5.23;2.43;;;28.00;84.00;;;;;;6184507;23;20650;-74
2021/08/03 07:26:47;;;;;;;2.27;1.70;;;28.00;84.00;;;;;;6184919;23;20452;-73
2021/08/03 07:29:16;;;;;;;3.67;1.57;;;28.10;83.30;;;;;;6184345;23;20428;-71
2021/08/03 07:31:43;;;;;;;3.23;1.80;;;28.20;83.30;;;;;;6185627;23;20403;-76
2021/08/03 07:34:11;;;;;;;3.07;1.43;;;28.50;81.90;;;;;;6184600;23;20392;-73
2021/08/03 07:36:39;;;;;;;3.30;1.60;;;28.90;81.00;;;;;;6185847;23;20399;-74
2021/08/03 07:39:08;;;;;;;12.30;3.60;;;29.40;79.90;;;;;;6184831;23;20447;-72
2021/08/03 07:41:36;;;;;;;3.10;2.00;;;28.80;78.90;;;;;;6185095;23;20396;-72
2021/08/03 07:44:04;;;;;;;2.87;1.50;;;27.70;81.40;;;;;;6184768;23;20396;-71
2021/08/03 07:46:35;;;;;;;4.57;1.60;;;27.50;84.80;;;;;;6185031;23;20388;-71
2021/08/03 07:49:04;;;;;;;2.10;1.57;;;28.20;82.30;;;;;;6184902;23;20931;-74
2021/08/03 07:51:32;;;;;;;2.00;1.23;;;28.20;82.10;;;;;;6185385;23;20388;-73
2021/08/03 07:53:59;;;;;;;3.93;2.13;;;27.90;82.40;;;;;;6184593;23;20856;-71
2021/08/03 07:56:26;;;;;;;5.23;1.83;;;27.10;83.70;;;;;;6184767;23;20388;-73
2021/08/03 07:58:53;;;;;;;1.60;1.13;;;26.90;84.90;;;;;;6184401;23;20918;-72
2021/08/03 08:01:20;;;;;;;2.23;1.63;;;27.00;84.30;;;;;;6185715;23;20394;-70
2021/08/03 08:03:49;;;;;;;2.03;1.23;;;27.50;82.90;;;;;;6184463;23;20400;-73
2021/08/03 08:06:16;;;;;;;2.20;1.30;;;28.00;81.60;;;;;;6185019;23;20796;-71
2021/08/03 08:08:43;;;;;;;1.60;1.43;;;28.00;80.70;;;;;;6184297;23;20443;-76
2021/08/03 08:11:11;;;;;;;2.00;1.23;;;27.60;81.20;;;;;;6184223;23;20388;-72
2021/08/03 08:13:39;;;;;;;2.57;1.57;;;28.00;80.70;;;;;;6184702;23;20400;-74
2021/08/03 08:16:07;;;;;;;3.53;1.40;;;28.60;80.60;;;;;;6183843;23;20399;-71
2021/08/03 08:18:34;;;;;;;2.87;1.17;;;28.90;78.90;;;;;;6183739;23;20775;-72
2021/08/03 08:21:05;;;;;;;1.87;1.60;;;28.80;78.70;;;;;;6184280;23;20447;-71
2021/08/03 08:23:34;;;;;;;2.90;1.73;;;29.40;79.10;;;;;;6185123;23;20399;-71
2021/08/03 08:26:01;;;;;;;2.23;1.50;;;29.10;74.90;;;;;;6183311;23;20428;-70
2021/08/03 08:28:28;;;;;;;2.90;1.50;;;29.10;76.80;;;;;;6185298;23;20424;-72
2021/08/03 08:30:56;;;;;;;2.53;1.43;;;29.40;75.60;;;;;;6185019;23;20423;-74
2021/08/03 08:33:23;;;;;;;4.47;1.40;;;29.40;75.40;;;;;;6184897;23;20402;-72
2021/08/03 08:35:51;;;;;;;7.27;1.40;;;29.30;75.00;;;;;;6184225;23;20767;-71
2021/08/03 08:38:19;;;;;;;2.80;1.23;;;28.50;76.10;;;;;;6184053;23;20442;-71
2021/08/03 08:40:47;;;;;;;3.80;1.67;;;28.70;78.20;;;;;;6184696;23;20402;-72
2021/08/03 08:43:15;;;;;;;2.43;1.20;;;28.80;76.90;;;;;;6184707;23;20419;-72
2021/08/03 08:45:43;;;;;;;2.17;1.30;;;28.50;76.60;;;;;;6184113;23;20478;-73
2021/08/03 08:48:16;;;;;;;3.07;1.50;;;28.90;75.00;;;;;;6183566;23;20435;-70
2021/08/03 08:50:43;;;;;;;2.90;1.10;;;29.30;73.90;;;;;;6184588;23;20388;-70
2021/08/03 08:53:11;;;;;;;3.07;1.40;;;28.90;75.30;;;;;;6184490;23;20400;-70
2021/08/03 08:55:39;;;;;;;1.57;1.47;;;28.70;75.40;;;;;;6183595;23;20867;-72
2021/08/03 08:58:06;;;;;;;3.47;1.10;;;27.80;77.00;;;;;;6184156;23;20820;-72
2021/08/03 09:00:33;;;;;;;3.03;1.13;;;27.30;77.10;;;;;;6183665;23;20461;-71
2021/08/03 09:03:01;;;;;;;2.50;1.40;;;27.20;78.60;;;;;;6184627;23;20403;-71
2021/08/03 09:05:30;;;;;;;3.00;1.53;;;26.40;79.10;;;;;;6184199;23;20400;-71
2021/08/03 09:07:59;;;;;;;1.70;1.10;;;26.20;83.20;;;;;;6184074;23;20937;-71
2021/08/03 09:10:35;;;;;;;1.20;1.00;;;27.10;79.70;;;;;;6184568;23;20396;-72
2021/08/03 09:13:07;;;;;;;2.60;1.17;;;28.10;74.40;;;;;;6184609;23;20517;-73
2021/08/03 09:15:36;;;;;;;1.67;1.17;;;29.30;73.40;;;;;;6184022;23;20399;-72
2021/08/03 09:18:16;;;;;;;1.70;1.03;;;29.10;72.30;;;;;;6183876;23;20436;-70
2021/08/03 09:20:45;;;;;;;3.63;1.00;;;27.40;75.00;;;;;;6182923;23;20395;-72
2021/08/03 09:23:13;;;;;;;1.27;0.90;;;26.80;77.00;;;;;;6184068;23;20388;-69
2021/08/03 09:25:57;;;;;;;2.67;1.37;;;26.40;78.90;;;;;;6183715;23;20402;-69
2021/08/03 09:28:26;;;;;;;2.57;1.53;;;26.00;79.50;;;;;;6157079;23;20518;-71
2021/08/03 09:30:54;;;;;;;2.87;1.30;;;25.30;80.30;;;;;;6184135;23;20673;-72
2021/08/03 09:33:23;;;;;;;8.17;1.40;;;24.80;83.10;;;;;;6184389;23;20909;-73
2021/08/03 09:35:51;;;;;;;2.00;0.90;;;24.10;83.60;;;;;;6183573;23;20394;-71
2021/08/03 09:38:20;;;;;;;1.33;1.00;;;23.70;85.60;;;;;;6183081;23;20427;-71
2021/08/03 09:40:48;;;;;;;1.60;0.90;;;24.30;85.80;;;;;;6184062;23;20808;-74
2021/08/03 09:43:17;;;;;;;1.60;1.10;;;25.10;84.30;;;;;;6184313;23;20696;-74
2021/08/03 09:46:00;;;;;;;2.70;1.20;;;25.70;81.50;;;;;;6183438;23;20392;-69
2021/08/03 09:48:29;;;;;;;2.30;1.47;;;25.80;79.40;;;;;;6183469;23;20435;-75
2021/08/03 09:51:02;;;;;;;4.93;1.67;;;26.60;77.90;;;;;;6183725;23;20392;-72
2021/08/03 09:53:50;;;;;;;1.40;1.23;;;27.40;75.30;;;;;;6183867;23;20471;-71
2021/08/03 09:56:20;;;;;;;1.93;1.07;;;27.40;75.40;;;;;;6184362;23;20454;-71
2021/08/03 09:58:55;;;;;;;2.70;1.10;;;27.30;74.50;;;;;;6184081;23;20760;-71
2021/08/03 10:01:25;;;;;;;2.90;1.57;;;27.20;74.60;;;;;;6184613;23;20723;-71
2021/08/03 10:03:54;;;;;;;2.00;1.27;;;27.10;75.20;;;;;;6183935;23;20419;-73
2021/08/03 10:06:22;;;;;;;1.30;1.00;;;27.30;75.60;;;;;;6184339;23;20399;-72
2021/08/03 10:08:52;;;;;;;2.23;1.23;;;27.30;75.30;;;;;;6185584;23;20427;-74
2021/08/03 10:11:20;;;;;;;3.50;1.67;;;27.30;76.20;;;;;;6186030;23;20867;-69
2021/08/03 10:13:48;;;;;;;1.83;1.20;;;26.40;75.70;;;;;;6185409;23;20430;-73
2021/08/03 10:16:16;;;;;;;5.67;3.33;;;26.10;78.90;;;;;;6185032;23;20777;-71
2021/08/03 10:18:47;;;;;;;2.80;1.50;;;25.40;80.30;;;;;;6185808;23;20456;-73
2021/08/03 10:21:24;;;;;;;5.27;1.30;;;25.00;82.20;;;;;;6185555;23;20403;-72
2021/08/03 10:23:52;;;;;;;2.83;1.30;;;24.50;83.60;;;;;;6160111;23;20399;-73
2021/08/03 10:26:22;;;;;;;2.20;1.30;;;24.30;85.60;;;;;;6185315;23;20925;-72
2021/08/03 10:28:49;;;;;;;5.67;1.43;;;24.20;85.60;;;;;;6185545;23;20437;-73
2021/08/03 10:31:39;;;;;;;5.83;1.47;;;24.90;85.20;;;;;;6185259;23;20395;-69
2021/08/03 10:34:08;;;;;;;2.20;1.60;;;25.90;83.00;;;;;;6184999;23;20399;-72
2021/08/03 10:36:50;;;;;;;5.60;1.70;;;26.50;79.60;;;;;;6185673;23;20709;-69
2021/08/03 10:39:19;;;;;;;2.43;1.13;;;26.40;79.20;;;;;;6185342;23;20451;-72
2021/08/03 10:42:12;;;;;;;3.30;1.73;;;26.40;79.30;;;;;;6186091;23;20407;-70
2021/08/03 10:44:41;;;;;;;6.17;1.20;;;26.50;78.50;;;;;;6185035;23;20834;-72
2021/08/03 10:47:52;;;;;;;3.90;1.50;;;26.50;77.60;;;;;;6185268;23;20440;-73
2021/08/03 10:50:32;;;;;;;2.43;0.93;;;26.40;77.50;;;;;;6065922;23;20878;-72
2021/08/03 10:53:02;;;;;;;2.50;1.30;;;26.00;79.30;;;;;;6166651;23;20430;-70
2021/08/03 10:55:40;;;;;;;3.50;1.40;;;25.70;76.90;;;;;;6184959;23;20396;-69
2021/08/03 10:58:20;;;;;;;3.60;1.10;;;25.60;77.20;;;;;;6185269;23;20427;-70
2021/08/03 11:00:49;;;;;;;3.73;1.20;;;25.80;74.80;;;;;;6185522;23;20431;-70
2021/08/03 11:03:45;;;;;;;1.33;0.90;;;26.00;75.70;;;;;;6185887;23;20396;-71
2021/08/03 11:06:38;;;;;;;4.60;1.47;;;26.00;73.00;;;;;;6184242;23;20458;-71
2021/08/03 11:09:34;;;;;;;2.13;1.33;;;26.00;72.10;;;;;;6184856;23;20505;-72
2021/08/03 11:12:44;;;;;;;3.10;1.27;;;26.30;71.30;;;;;;6186234;23;20789;-73
2021/08/03 11:15:42;;;;;;;2.00;1.13;;;25.60;71.90;;;;;;6186085;23;20405;-73
2021/08/03 11:18:13;;;;;;;1.90;1.10;;;25.10;73.60;;;;;;6185085;23;20506;-74
2021/08/03 11:21:14;;;;;;;1.50;0.90;;;24.90;72.20;;;;;;6185704;23;20524;-71
2021/08/03 11:24:06;;;;;;;1.63;0.70;;;24.70;73.90;;;;;;6037535;23;20396;-75
2021/08/03 11:26:36;;;;;;;1.30;1.00;;;25.10;73.40;;;;;;6032180;23;20427;-73
2021/08/03 11:29:12;;;;;;;5.43;1.17;;;25.40;72.90;;;;;;6036757;23;20800;-70
2021/08/03 11:31:53;;;;;;;2.20;0.87;;;25.40;73.30;;;;;;6094533;23;20703;-73
2021/08/03 11:34:26;;;;;;;1.90;1.53;;;25.10;72.00;;;;;;6184655;23;20398;-74
2021/08/03 11:37:09;;;;;;;1.50;1.00;;;24.90;73.20;;;;;;6184502;23;20882;-71
2021/08/03 11:39:39;;;;;;;3.30;1.00;;;24.80;73.60;;;;;;6184596;23;20428;-71
2021/08/03 11:42:09;;;;;;;1.77;1.03;;;24.80;73.30;;;;;;6185267;23;20392;-71
2021/08/03 11:44:37;;;;;;;8.43;1.60;;;25.10;73.60;;;;;;6183921;23;20403;-70
2021/08/03 11:47:17;;;;;;;2.40;1.20;;;25.20;74.40;;;;;;6183722;23;20419;-72
2021/08/03 11:49:46;;;;;;;2.40;1.03;;;25.00;74.00;;;;;;6184508;23;20430;-74
2021/08/03 11:52:23;;;;;;;1.70;0.90;;;24.50;73.60;;;;;;6184460;23;20726;-68
2021/08/03 11:54:55;;;;;;;3.80;1.00;;;24.20;75.40;;;;;;6184697;23;20400;-72
2021/08/03 11:57:34;;;;;;;2.17;0.97;;;24.20;75.80;;;;;;6184398;23;20457;-71
2021/08/03 12:00:20;;;;;;;1.80;1.13;;;24.40;76.40;;;;;;6184164;23;20429;-76
2021/08/03 12:02:49;;;;;;;1.73;1.00;;;24.80;76.20;;;;;;6185347;23;20396;-72
2021/08/03 12:05:20;;;;;;;1.97;1.20;;;25.00;75.20;;;;;;6184757;23;20388;-72
2021/08/03 12:07:53;;;;;;;2.40;0.97;;;25.00;74.90;;;;;;6184441;23;20434;-70
2021/08/03 12:10:24;;;;;;;2.37;1.10;;;25.30;74.60;;;;;;6185006;23;20396;-70
2021/08/03 12:12:52;;;;;;;2.00;1.20;;;25.40;73.10;;;;;;6184866;23;20393;-70
2021/08/03 12:15:22;;;;;;;1.87;1.20;;;25.60;73.00;;;;;;6184401;23;20406;-73
2021/08/03 12:17:50;;;;;;;1.50;1.10;;;25.80;71.40;;;;;;6184472;23;20439;-71
2021/08/03 12:20:25;;;;;;;2.00;1.27;;;25.90;72.50;;;;;;6185050;23;20942;-68
2021/08/03 12:22:53;;;;;;;2.67;1.73;;;25.70;71.90;;;;;;6185115;23;20442;-73
2021/08/03 12:25:22;;;;;;;2.20;1.07;;;25.80;71.70;;;;;;6183917;23;20736;-71
2021/08/03 12:27:49;;;;;;;2.93;1.10;;;25.70;69.70;;;;;;6184238;23;20580;-69
2021/08/03 12:30:39;;;;;;;1.50;1.10;;;25.60;70.40;;;;;;6184566;23;20456;-69
2021/08/03 12:33:07;;;;;;;1.27;1.00;;;25.70;70.60;;;;;;6184029;23;20410;-70
2021/08/03 12:35:39;;;;;;;2.23;1.17;;;25.60;69.80;;;;;;6183728;23;20869;-71
2021/08/03 12:38:19;;;;;;;4.60;1.10;;;25.60;70.50;;;;;;6183718;23;20517;-71
2021/08/03 12:40:47;;;;;;;2.03;1.40;;;26.10;74.60;;;;;;6184546;23;20430;-70
2021/08/03 12:43:14;;;;;;;4.33;1.90;;;26.60;76.70;;;;;;6184286;23;20691;-69
2021/08/03 12:45:42;;;;;;;1.50;1.30;;;26.80;75.00;;;;;;6184261;23;20399;-72
2021/08/03 12:48:11;;;;;;;3.10;2.13;;;26.60;74.40;;;;;;6182821;23;20728;-69
2021/08/03 12:50:53;;;;;;;5.00;1.53;;;26.00;75.70;;;;;;6184181;23;20765;-71
2021/08/03 12:53:27;;;;;;;2.47;1.50;;;25.70;75.90;;;;;;6184413;23;20487;-71
2021/08/03 12:55:59;;;;;;;2.27;1.10;;;25.50;76.80;;;;;;6184170;23;20718;-70
2021/08/03 12:58:34;;;;;;;2.53;1.30;;;25.10;72.00;;;;;;6183879;23;20427;-72
2021/08/03 13:01:13;;;;;;;1.83;1.33;;;24.90;70.80;;;;;;6184001;23;20534;-68
2021/08/03 13:03:40;;;;;;;2.03;1.33;;;24.90;73.20;;;;;;6183623;23;20482;-70